sensor_id;sensor_type;location;lat;lon;timestamp;temperature;humidity
43991;DHT22;29654;50.784;20.604;2023-06-19T00:00:01;20.60;49.00
43991;DHT22;29654;50.784;20.604;2023-06-19T00:05:14;20.50;49.10
43991;DHT22;29654;50.784;20.604;2023-06-19T00:10:16;20.50;49.20
43991;DHT22;29654;50.784;20.604;2023-06-19T00:15:19;20.40;49.20
43991;DHT22;29654;50.784;20.604;2023-06-19T00:20:23;20.30;49.30
43991;DHT22;29654;50.784;20.604;2023-06-19T00:25:26;20.30;49.60
43991;DHT22;29654;50.784;20.604;2023-06-19T00:30:28;20.20;50.20
43991;DHT22;29654;50.784;20.604;2023-06-19T00:35:34;20.20;49.60
43991;DHT22;29654;50.784;20.604;2023-06-19T00:40:37;20.20;49.70
43991;DHT22;29654;50.784;20.604;2023-06-19T00:45:40;20.10;49.60
43991;DHT22;29654;50.784;20.604;2023-06-19T00:50:44;20.00;49.70
43991;DHT22;29654;50.784;20.604;2023-06-19T00:55:48;20.00;50.00
43991;DHT22;29654;50.784;20.604;2023-06-19T01:00:52;20.00;49.90
43991;DHT22;29654;50.784;20.604;2023-06-19T01:05:57;19.90;49.90
43991;DHT22;29654;50.784;20.604;2023-06-19T01:11:02;19.90;50.20
43991;DHT22;29654;50.784;20.604;2023-06-19T01:16:07;19.80;50.70
43991;DHT22;29654;50.784;20.604;2023-06-19T01:21:15;19.70;49.90
43991;DHT22;29654;50.784;20.604;2023-06-19T01:26:21;19.70;50.40
43991;DHT22;29654;50.784;20.604;2023-06-19T01:31:31;19.60;50.30
43991;DHT22;29654;50.784;20.604;2023-06-19T01:36:37;19.50;50.20
43991;DHT22;29654;50.784;20.604;2023-06-19T01:41:42;19.50;50.00
43991;DHT22;29654;50.784;20.604;2023-06-19T01:46:48;19.40;50.20
43991;DHT22;29654;50.784;20.604;2023-06-19T01:51:51;19.40;50.20
43991;DHT22;29654;50.784;20.604;2023-06-19T01:56:55;19.30;50.20
43991;DHT22;29654;50.784;20.604;2023-06-19T02:01:57;19.30;50.30
43991;DHT22;29654;50.784;20.604;2023-06-19T02:07:00;19.20;50.20
43991;DHT22;29654;50.784;20.604;2023-06-19T02:12:05;19.20;50.40
43991;DHT22;29654;50.784;20.604;2023-06-19T02:17:08;19.10;50.60
43991;DHT22;29654;50.784;20.604;2023-06-19T02:22:11;19.10;50.70
43991;DHT22;29654;50.784;20.604;2023-06-19T02:27:15;19.10;50.70
43991;DHT22;29654;50.784;20.604;2023-06-19T02:32:17;19.10;50.90
43991;DHT22;29654;50.784;20.604;2023-06-19T02:37:20;19.00;50.70
43991;DHT22;29654;50.784;20.604;2023-06-19T02:42:24;19.00;50.80
43991;DHT22;29654;50.784;20.604;2023-06-19T02:47:26;19.00;50.90
43991;DHT22;29654;50.784;20.604;2023-06-19T02:52:30;19.00;51.50
43991;DHT22;29654;50.784;20.604;2023-06-19T02:57:35;19.00;51.10
43991;DHT22;29654;50.784;20.604;2023-06-19T03:02:37;19.10;51.50
43991;DHT22;29654;50.784;20.604;2023-06-19T03:07:44;19.30;52.10
43991;DHT22;29654;50.784;20.604;2023-06-19T03:12:48;19.70;52.90
43991;DHT22;29654;50.784;20.604;2023-06-19T03:17:52;20.30;53.70
43991;DHT22;29654;50.784;20.604;2023-06-19T03:22:55;21.00;53.60
43991;DHT22;29654;50.784;20.604;2023-06-19T03:28:01;22.00;53.30
43991;DHT22;29654;50.784;20.604;2023-06-19T03:33:04;23.00;52.50
43991;DHT22;29654;50.784;20.604;2023-06-19T03:38:19;23.90;52.20
43991;DHT22;29654;50.784;20.604;2023-06-19T03:43:24;24.90;50.60
43991;DHT22;29654;50.784;20.604;2023-06-19T03:48:27;25.90;49.40
43991;DHT22;29654;50.784;20.604;2023-06-19T03:53:30;26.80;48.70
43991;DHT22;29654;50.784;20.604;2023-06-19T03:58:34;27.60;47.60
43991;DHT22;29654;50.784;20.604;2023-06-19T04:03:36;28.50;46.80
43991;DHT22;29654;50.784;20.604;2023-06-19T04:08:39;29.40;46.10
43991;DHT22;29654;50.784;20.604;2023-06-19T04:13:47;30.30;45.10
43991;DHT22;29654;50.784;20.604;2023-06-19T04:18:49;31.10;43.90
43991;DHT22;29654;50.784;20.604;2023-06-19T04:23:52;31.90;43.30
43991;DHT22;29654;50.784;20.604;2023-06-19T04:28:56;32.70;43.10
43991;DHT22;29654;50.784;20.604;2023-06-19T04:33:58;33.50;41.30
43991;DHT22;29654;50.784;20.604;2023-06-19T04:39:05;34.10;40.40
43991;DHT22;29654;50.784;20.604;2023-06-19T04:44:10;34.80;39.80
43991;DHT22;29654;50.784;20.604;2023-06-19T04:49:13;35.40;38.60
43991;DHT22;29654;50.784;20.604;2023-06-19T04:54:16;35.80;37.40
43991;DHT22;29654;50.784;20.604;2023-06-19T04:59:20;36.10;36.40
43991;DHT22;29654;50.784;20.604;2023-06-19T05:04:23;36.00;35.10
43991;DHT22;29654;50.784;20.604;2023-06-19T05:09:26;35.80;34.60
43991;DHT22;29654;50.784;20.604;2023-06-19T05:14:29;35.40;34.20
43991;DHT22;29654;50.784;20.604;2023-06-19T05:19:32;34.80;34.10
43991;DHT22;29654;50.784;20.604;2023-06-19T05:24:35;34.20;34.60
43991;DHT22;29654;50.784;20.604;2023-06-19T05:29:39;33.60;35.10
43991;DHT22;29654;50.784;20.604;2023-06-19T05:34:41;33.00;35.50
43991;DHT22;29654;50.784;20.604;2023-06-19T05:39:44;32.50;36.20
43991;DHT22;29654;50.784;20.604;2023-06-19T05:44:51;32.00;36.70
43991;DHT22;29654;50.784;20.604;2023-06-19T05:49:58;31.70;37.40
43991;DHT22;29654;50.784;20.604;2023-06-19T05:55:01;31.40;38.10
43991;DHT22;29654;50.784;20.604;2023-06-19T06:00:06;31.20;38.30
43991;DHT22;29654;50.784;20.604;2023-06-19T06:05:14;31.00;38.70
43991;DHT22;29654;50.784;20.604;2023-06-19T06:10:19;30.80;38.80
43991;DHT22;29654;50.784;20.604;2023-06-19T06:15:23;30.80;39.00
43991;DHT22;29654;50.784;20.604;2023-06-19T06:20:25;30.70;39.30
43991;DHT22;29654;50.784;20.604;2023-06-19T06:25:28;30.70;39.30
43991;DHT22;29654;50.784;20.604;2023-06-19T06:30:32;30.70;38.90
43991;DHT22;29654;50.784;20.604;2023-06-19T06:35:35;30.70;38.70
43991;DHT22;29654;50.784;20.604;2023-06-19T06:40:38;30.80;38.70
43991;DHT22;29654;50.784;20.604;2023-06-19T06:45:43;30.70;38.60
43991;DHT22;29654;50.784;20.604;2023-06-19T06:50:46;30.80;38.40
43991;DHT22;29654;50.784;20.604;2023-06-19T06:55:48;30.70;38.30
43991;DHT22;29654;50.784;20.604;2023-06-19T07:00:53;30.80;38.20
43991;DHT22;29654;50.784;20.604;2023-06-19T07:05:55;30.80;38.20
43991;DHT22;29654;50.784;20.604;2023-06-19T07:10:58;30.80;38.00
43991;DHT22;29654;50.784;20.604;2023-06-19T07:16:02;30.90;37.30
43991;DHT22;29654;50.784;20.604;2023-06-19T07:21:10;30.90;36.90
43991;DHT22;29654;50.784;20.604;2023-06-19T07:26:14;31.00;36.70
43991;DHT22;29654;50.784;20.604;2023-06-19T07:31:18;31.10;36.70
43991;DHT22;29654;50.784;20.604;2023-06-19T07:36:20;31.20;36.60
43991;DHT22;29654;50.784;20.604;2023-06-19T07:41:23;31.30;36.80
43991;DHT22;29654;50.784;20.604;2023-06-19T07:46:27;31.30;36.80
43991;DHT22;29654;50.784;20.604;2023-06-19T07:51:30;31.40;36.30
43991;DHT22;29654;50.784;20.604;2023-06-19T07:56:33;31.40;36.20
43991;DHT22;29654;50.784;20.604;2023-06-19T08:01:37;31.50;36.20
43991;DHT22;29654;50.784;20.604;2023-06-19T08:06:39;31.60;36.00
43991;DHT22;29654;50.784;20.604;2023-06-19T08:11:42;31.60;36.10
43991;DHT22;29654;50.784;20.604;2023-06-19T08:16:46;31.60;36.20
43991;DHT22;29654;50.784;20.604;2023-06-19T08:21:48;31.60;36.10
43991;DHT22;29654;50.784;20.604;2023-06-19T08:26:51;31.60;36.60
43991;DHT22;29654;50.784;20.604;2023-06-19T08:31:55;31.70;36.60
43991;DHT22;29654;50.784;20.604;2023-06-19T08:36:58;31.80;36.00
43991;DHT22;29654;50.784;20.604;2023-06-19T08:42:00;31.90;36.20
43991;DHT22;29654;50.784;20.604;2023-06-19T08:47:05;31.90;36.80
43991;DHT22;29654;50.784;20.604;2023-06-19T08:52:08;32.00;36.40
43991;DHT22;29654;50.784;20.604;2023-06-19T08:57:11;32.00;36.20
43991;DHT22;29654;50.784;20.604;2023-06-19T09:02:15;32.10;35.50
43991;DHT22;29654;50.784;20.604;2023-06-19T09:07:18;32.20;35.40
43991;DHT22;29654;50.784;20.604;2023-06-19T09:12:23;32.20;34.90
43991;DHT22;29654;50.784;20.604;2023-06-19T09:17:35;32.20;35.00
43991;DHT22;29654;50.784;20.604;2023-06-19T09:22:48;32.30;35.10
43991;DHT22;29654;50.784;20.604;2023-06-19T09:27:50;32.40;34.60
43991;DHT22;29654;50.784;20.604;2023-06-19T09:32:54;32.40;34.50
43991;DHT22;29654;50.784;20.604;2023-06-19T09:37:58;32.30;33.90
43991;DHT22;29654;50.784;20.604;2023-06-19T09:43:02;32.20;34.20
43991;DHT22;29654;50.784;20.604;2023-06-19T09:48:10;32.20;34.00
43991;DHT22;29654;50.784;20.604;2023-06-19T09:53:25;32.20;34.20
43991;DHT22;29654;50.784;20.604;2023-06-19T09:58:30;32.30;34.30
43991;DHT22;29654;50.784;20.604;2023-06-19T10:03:36;32.40;33.80
43991;DHT22;29654;50.784;20.604;2023-06-19T10:08:40;32.40;33.80
43991;DHT22;29654;50.784;20.604;2023-06-19T10:13:44;32.60;33.90
43991;DHT22;29654;50.784;20.604;2023-06-19T10:18:49;32.70;33.70
43991;DHT22;29654;50.784;20.604;2023-06-19T10:23:55;32.80;33.10
43991;DHT22;29654;50.784;20.604;2023-06-19T10:28:59;32.90;32.80
43991;DHT22;29654;50.784;20.604;2023-06-19T10:34:04;32.90;33.50
43991;DHT22;29654;50.784;20.604;2023-06-19T10:39:08;33.10;32.60
43991;DHT22;29654;50.784;20.604;2023-06-19T10:44:11;33.10;32.50
43991;DHT22;29654;50.784;20.604;2023-06-19T10:49:17;33.20;32.50
43991;DHT22;29654;50.784;20.604;2023-06-19T10:54:20;33.20;32.20
43991;DHT22;29654;50.784;20.604;2023-06-19T10:59:23;33.20;32.20
43991;DHT22;29654;50.784;20.604;2023-06-19T11:04:28;33.10;32.00
43991;DHT22;29654;50.784;20.604;2023-06-19T11:09:31;33.20;31.70
43991;DHT22;29654;50.784;20.604;2023-06-19T11:14:33;33.30;31.90
43991;DHT22;29654;50.784;20.604;2023-06-19T11:19:41;33.40;31.70
43991;DHT22;29654;50.784;20.604;2023-06-19T11:24:45;33.50;32.00
43991;DHT22;29654;50.784;20.604;2023-06-19T11:29:55;33.50;31.50
43991;DHT22;29654;50.784;20.604;2023-06-19T11:35:05;33.50;30.60
43991;DHT22;29654;50.784;20.604;2023-06-19T11:40:10;33.50;30.40
43991;DHT22;29654;50.784;20.604;2023-06-19T11:45:17;33.50;31.30
43991;DHT22;29654;50.784;20.604;2023-06-19T11:50:26;33.60;31.90
43991;DHT22;29654;50.784;20.604;2023-06-19T11:55:29;33.60;30.60
43991;DHT22;29654;50.784;20.604;2023-06-19T12:00:31;33.70;30.90
43991;DHT22;29654;50.784;20.604;2023-06-19T12:05:35;33.70;30.60
43991;DHT22;29654;50.784;20.604;2023-06-19T12:10:38;33.60;30.50
43991;DHT22;29654;50.784;20.604;2023-06-19T12:15:41;33.60;30.30
43991;DHT22;29654;50.784;20.604;2023-06-19T12:20:45;33.60;30.70
43991;DHT22;29654;50.784;20.604;2023-06-19T12:25:47;33.60;30.50
43991;DHT22;29654;50.784;20.604;2023-06-19T12:30:50;33.70;30.70
43991;DHT22;29654;50.784;20.604;2023-06-19T12:35:54;33.70;30.40
43991;DHT22;29654;50.784;20.604;2023-06-19T12:40:57;33.80;30.00
43991;DHT22;29654;50.784;20.604;2023-06-19T12:46:00;33.70;30.40
43991;DHT22;29654;50.784;20.604;2023-06-19T12:51:05;33.80;30.70
43991;DHT22;29654;50.784;20.604;2023-06-19T12:56:08;33.90;30.10
43991;DHT22;29654;50.784;20.604;2023-06-19T13:01:10;34.00;30.00
43991;DHT22;29654;50.784;20.604;2023-06-19T13:06:14;34.10;30.00
43991;DHT22;29654;50.784;20.604;2023-06-19T13:11:17;34.10;29.40
43991;DHT22;29654;50.784;20.604;2023-06-19T13:16:19;34.10;29.50
43991;DHT22;29654;50.784;20.604;2023-06-19T13:21:24;34.00;29.60
43991;DHT22;29654;50.784;20.604;2023-06-19T13:26:27;34.10;29.70
43991;DHT22;29654;50.784;20.604;2023-06-19T13:31:29;34.20;29.90
43991;DHT22;29654;50.784;20.604;2023-06-19T13:36:33;34.30;29.70
43991;DHT22;29654;50.784;20.604;2023-06-19T13:41:36;34.30;29.20
43991;DHT22;29654;50.784;20.604;2023-06-19T13:46:38;34.30;29.30
43991;DHT22;29654;50.784;20.604;2023-06-19T13:51:42;34.30;29.40
43991;DHT22;29654;50.784;20.604;2023-06-19T13:56:45;34.30;29.40
43991;DHT22;29654;50.784;20.604;2023-06-19T14:01:48;34.20;29.20
43991;DHT22;29654;50.784;20.604;2023-06-19T14:06:52;34.20;29.40
43991;DHT22;29654;50.784;20.604;2023-06-19T14:11:55;34.20;29.50
43991;DHT22;29654;50.784;20.604;2023-06-19T14:16:58;34.30;29.50
43991;DHT22;29654;50.784;20.604;2023-06-19T14:22:02;34.30;29.30
43991;DHT22;29654;50.784;20.604;2023-06-19T14:27:05;34.30;29.00
43991;DHT22;29654;50.784;20.604;2023-06-19T14:32:08;34.40;29.10
43991;DHT22;29654;50.784;20.604;2023-06-19T14:37:12;34.40;28.90
43991;DHT22;29654;50.784;20.604;2023-06-19T14:42:15;34.40;28.80
43991;DHT22;29654;50.784;20.604;2023-06-19T14:47:17;34.20;28.50
43991;DHT22;29654;50.784;20.604;2023-06-19T14:52:21;33.90;28.80
43991;DHT22;29654;50.784;20.604;2023-06-19T14:57:24;33.70;28.70
43991;DHT22;29654;50.784;20.604;2023-06-19T15:02:27;33.40;29.00
43991;DHT22;29654;50.784;20.604;2023-06-19T15:07:31;33.20;29.20
43991;DHT22;29654;50.784;20.604;2023-06-19T15:12:33;33.10;29.40
43991;DHT22;29654;50.784;20.604;2023-06-19T15:17:36;33.00;29.60
43991;DHT22;29654;50.784;20.604;2023-06-19T15:22:40;32.90;29.80
43991;DHT22;29654;50.784;20.604;2023-06-19T15:27:42;33.00;29.80
43991;DHT22;29654;50.784;20.604;2023-06-19T15:32:47;33.00;29.90
43991;DHT22;29654;50.784;20.604;2023-06-19T15:37:56;33.10;29.90
43991;DHT22;29654;50.784;20.604;2023-06-19T15:42:59;33.20;29.90
43991;DHT22;29654;50.784;20.604;2023-06-19T15:48:02;33.10;29.70
43991;DHT22;29654;50.784;20.604;2023-06-19T15:53:06;33.30;29.90
43991;DHT22;29654;50.784;20.604;2023-06-19T15:58:08;33.40;29.90
43991;DHT22;29654;50.784;20.604;2023-06-19T16:03:11;33.40;29.70
43991;DHT22;29654;50.784;20.604;2023-06-19T16:08:15;33.40;29.60
43991;DHT22;29654;50.784;20.604;2023-06-19T16:13:18;33.40;29.50
43991;DHT22;29654;50.784;20.604;2023-06-19T16:18:21;33.50;29.70
43991;DHT22;29654;50.784;20.604;2023-06-19T16:23:25;33.50;29.50
43991;DHT22;29654;50.784;20.604;2023-06-19T16:28:27;33.60;29.10
43991;DHT22;29654;50.784;20.604;2023-06-19T16:33:30;33.60;29.20
43991;DHT22;29654;50.784;20.604;2023-06-19T16:38:34;33.60;28.90
43991;DHT22;29654;50.784;20.604;2023-06-19T16:43:36;33.50;28.90
43991;DHT22;29654;50.784;20.604;2023-06-19T16:48:39;33.30;28.80
43991;DHT22;29654;50.784;20.604;2023-06-19T16:53:43;33.20;29.00
43991;DHT22;29654;50.784;20.604;2023-06-19T16:58:46;33.20;29.30
43991;DHT22;29654;50.784;20.604;2023-06-19T17:03:48;33.20;29.40
43991;DHT22;29654;50.784;20.604;2023-06-19T17:08:52;33.30;29.30
43991;DHT22;29654;50.784;20.604;2023-06-19T17:13:55;33.20;29.60
43991;DHT22;29654;50.784;20.604;2023-06-19T17:18:57;33.20;29.30
43991;DHT22;29654;50.784;20.604;2023-06-19T17:24:01;33.10;29.30
43991;DHT22;29654;50.784;20.604;2023-06-19T17:29:04;33.10;29.40
43991;DHT22;29654;50.784;20.604;2023-06-19T17:34:07;33.00;29.40
43991;DHT22;29654;50.784;20.604;2023-06-19T17:39:11;32.90;29.90
43991;DHT22;29654;50.784;20.604;2023-06-19T17:44:14;32.70;29.40
43991;DHT22;29654;50.784;20.604;2023-06-19T17:49:17;32.50;29.90
43991;DHT22;29654;50.784;20.604;2023-06-19T17:54:23;32.40;31.10
43991;DHT22;29654;50.784;20.604;2023-06-19T17:59:26;32.30;31.60
43991;DHT22;29654;50.784;20.604;2023-06-19T18:04:29;32.10;31.80
43991;DHT22;29654;50.784;20.604;2023-06-19T18:09:33;32.00;31.90
43991;DHT22;29654;50.784;20.604;2023-06-19T18:14:35;31.80;32.20
43991;DHT22;29654;50.784;20.604;2023-06-19T18:19:38;31.60;32.30
43991;DHT22;29654;50.784;20.604;2023-06-19T18:24:42;31.40;32.50
43991;DHT22;29654;50.784;20.604;2023-06-19T18:29:45;31.20;32.80
43991;DHT22;29654;50.784;20.604;2023-06-19T18:34:47;30.90;33.20
43991;DHT22;29654;50.784;20.604;2023-06-19T18:39:52;30.60;33.40
43991;DHT22;29654;50.784;20.604;2023-06-19T18:44:54;30.40;33.70
43991;DHT22;29654;50.784;20.604;2023-06-19T18:49:57;30.10;34.10
43991;DHT22;29654;50.784;20.604;2023-06-19T18:55:01;29.80;34.40
43991;DHT22;29654;50.784;20.604;2023-06-19T19:00:05;29.50;34.90
43991;DHT22;29654;50.784;20.604;2023-06-19T19:05:08;29.20;34.90
43991;DHT22;29654;50.784;20.604;2023-06-19T19:10:12;28.90;35.20
43991;DHT22;29654;50.784;20.604;2023-06-19T19:15:15;28.60;35.60
43991;DHT22;29654;50.784;20.604;2023-06-19T19:20:18;28.40;36.00
43991;DHT22;29654;50.784;20.604;2023-06-19T19:25:22;28.10;36.20
43991;DHT22;29654;50.784;20.604;2023-06-19T19:30:25;27.90;36.50
43991;DHT22;29654;50.784;20.604;2023-06-19T19:35:28;27.70;36.80
43991;DHT22;29654;50.784;20.604;2023-06-19T19:40:32;27.50;37.00
43991;DHT22;29654;50.784;20.604;2023-06-19T19:45:34;27.30;37.50
43991;DHT22;29654;50.784;20.604;2023-06-19T19:50:37;27.10;37.60
43991;DHT22;29654;50.784;20.604;2023-06-19T19:55:41;27.00;38.00
43991;DHT22;29654;50.784;20.604;2023-06-19T20:00:43;26.80;38.30
43991;DHT22;29654;50.784;20.604;2023-06-19T20:05:50;26.60;38.40
43991;DHT22;29654;50.784;20.604;2023-06-19T20:10:54;26.50;38.70
43991;DHT22;29654;50.784;20.604;2023-06-19T20:15:56;26.30;39.00
43991;DHT22;29654;50.784;20.604;2023-06-19T20:20:59;26.20;39.20
43991;DHT22;29654;50.784;20.604;2023-06-19T20:26:02;26.10;39.50
43991;DHT22;29654;50.784;20.604;2023-06-19T20:31:05;25.90;39.90
43991;DHT22;29654;50.784;20.604;2023-06-19T20:36:08;25.80;39.90
43991;DHT22;29654;50.784;20.604;2023-06-19T20:41:12;25.70;40.00
43991;DHT22;29654;50.784;20.604;2023-06-19T20:46:17;25.60;40.40
43991;DHT22;29654;50.784;20.604;2023-06-19T20:51:19;25.40;40.40
43991;DHT22;29654;50.784;20.604;2023-06-19T20:56:24;25.30;40.70
43991;DHT22;29654;50.784;20.604;2023-06-19T21:01:27;25.20;41.00
43991;DHT22;29654;50.784;20.604;2023-06-19T21:06:30;25.10;41.00
43991;DHT22;29654;50.784;20.604;2023-06-19T21:11:35;25.00;41.30
43991;DHT22;29654;50.784;20.604;2023-06-19T21:16:41;24.90;41.60
43991;DHT22;29654;50.784;20.604;2023-06-19T21:21:43;24.80;41.60
43991;DHT22;29654;50.784;20.604;2023-06-19T21:26:47;24.70;41.90
43991;DHT22;29654;50.784;20.604;2023-06-19T21:31:50;24.60;42.30
43991;DHT22;29654;50.784;20.604;2023-06-19T21:36:52;24.50;42.30
43991;DHT22;29654;50.784;20.604;2023-06-19T21:41:56;24.40;42.50
43991;DHT22;29654;50.784;20.604;2023-06-19T21:46:59;24.30;42.90
43991;DHT22;29654;50.784;20.604;2023-06-19T21:52:01;24.20;42.90
43991;DHT22;29654;50.784;20.604;2023-06-19T21:57:06;24.10;43.00
43991;DHT22;29654;50.784;20.604;2023-06-19T22:02:08;24.10;43.50
43991;DHT22;29654;50.784;20.604;2023-06-19T22:07:11;24.00;43.40
43991;DHT22;29654;50.784;20.604;2023-06-19T22:12:16;23.90;43.50
43991;DHT22;29654;50.784;20.604;2023-06-19T22:17:19;23.80;43.70
43991;DHT22;29654;50.784;20.604;2023-06-19T22:22:21;23.80;43.70
43991;DHT22;29654;50.784;20.604;2023-06-19T22:27:25;23.70;43.90
43991;DHT22;29654;50.784;20.604;2023-06-19T22:32:28;23.60;44.20
43991;DHT22;29654;50.784;20.604;2023-06-19T22:37:30;23.50;44.20
43991;DHT22;29654;50.784;20.604;2023-06-19T22:42:35;23.50;44.30
43991;DHT22;29654;50.784;20.604;2023-06-19T22:47:38;23.40;44.60
43991;DHT22;29654;50.784;20.604;2023-06-19T22:52:41;23.30;44.60
43991;DHT22;29654;50.784;20.604;2023-06-19T22:57:45;23.30;44.70
43991;DHT22;29654;50.784;20.604;2023-06-19T23:02:47;23.20;44.90
43991;DHT22;29654;50.784;20.604;2023-06-19T23:07:50;23.10;45.60
43991;DHT22;29654;50.784;20.604;2023-06-19T23:12:55;23.10;45.10
43991;DHT22;29654;50.784;20.604;2023-06-19T23:17:58;23.00;45.30
43991;DHT22;29654;50.784;20.604;2023-06-19T23:23:00;23.00;45.30
43991;DHT22;29654;50.784;20.604;2023-06-19T23:28:07;22.80;45.30
43991;DHT22;29654;50.784;20.604;2023-06-19T23:33:09;22.90;45.70
43991;DHT22;29654;50.784;20.604;2023-06-19T23:38:12;22.80;45.60
43991;DHT22;29654;50.784;20.604;2023-06-19T23:43:16;22.70;45.60
43991;DHT22;29654;50.784;20.604;2023-06-19T23:48:18;22.70;45.90
43991;DHT22;29654;50.784;20.604;2023-06-19T23:53:21;22.70;45.90
43991;DHT22;29654;50.784;20.604;2023-06-19T23:58:25;22.60;45.90
